sensor_id;sensor_type;location;lat;lon;timestamp;temperature;humidity
71084;DHT22;58741;52.672;13.548;2022-07-12T00:00:35;13.20;77.50
71084;DHT22;58741;52.672;13.548;2022-07-12T00:03:00;13.10;78.10
71084;DHT22;58741;52.672;13.548;2022-07-12T00:05:26;13.10;77.90
71084;DHT22;58741;52.672;13.548;2022-07-12T00:07:51;13.10;78.10
71084;DHT22;58741;52.672;13.548;2022-07-12T00:10:17;13.10;77.90
71084;DHT22;58741;52.672;13.548;2022-07-12T00:12:42;13.00;78.50
71084;DHT22;58741;52.672;13.548;2022-07-12T00:15:09;13.00;78.40
71084;DHT22;58741;52.672;13.548;2022-07-12T00:17:35;12.90;78.10
71084;DHT22;58741;52.672;13.548;2022-07-12T00:20:01;12.90;78.40
71084;DHT22;58741;52.672;13.548;2022-07-12T00:22:26;12.90;78.40
71084;DHT22;58741;52.672;13.548;2022-07-12T00:24:54;12.80;78.60
71084;DHT22;58741;52.672;13.548;2022-07-12T00:27:19;12.80;78.50
71084;DHT22;58741;52.672;13.548;2022-07-12T00:29:45;12.70;77.80
71084;DHT22;58741;52.672;13.548;2022-07-12T00:32:10;12.70;78.40
71084;DHT22;58741;52.672;13.548;2022-07-12T00:34:36;12.70;79.00
71084;DHT22;58741;52.672;13.548;2022-07-12T00:37:02;12.60;78.90
71084;DHT22;58741;52.672;13.548;2022-07-12T00:39:27;12.60;78.60
71084;DHT22;58741;52.672;13.548;2022-07-12T00:41:53;12.50;78.70
71084;DHT22;58741;52.672;13.548;2022-07-12T00:44:18;12.50;78.80
71084;DHT22;58741;52.672;13.548;2022-07-12T00:46:45;12.50;78.70
71084;DHT22;58741;52.672;13.548;2022-07-12T00:49:12;12.40;79.00
71084;DHT22;58741;52.672;13.548;2022-07-12T00:51:43;12.40;79.40
71084;DHT22;58741;52.672;13.548;2022-07-12T00:54:09;12.40;79.40
71084;DHT22;58741;52.672;13.548;2022-07-12T00:56:36;12.40;79.60
71084;DHT22;58741;52.672;13.548;2022-07-12T00:59:02;12.30;79.60
71084;DHT22;58741;52.672;13.548;2022-07-12T01:01:28;12.30;79.60
71084;DHT22;58741;52.672;13.548;2022-07-12T01:03:54;12.20;79.60
71084;DHT22;58741;52.672;13.548;2022-07-12T01:06:20;12.20;80.10
71084;DHT22;58741;52.672;13.548;2022-07-12T01:08:46;12.10;80.30
71084;DHT22;58741;52.672;13.548;2022-07-12T01:11:12;12.10;80.00
71084;DHT22;58741;52.672;13.548;2022-07-12T01:13:37;12.10;79.80
71084;DHT22;58741;52.672;13.548;2022-07-12T01:16:05;12.10;80.00
71084;DHT22;58741;52.672;13.548;2022-07-12T01:18:32;12.00;80.30
71084;DHT22;58741;52.672;13.548;2022-07-12T01:21:01;12.00;79.80
71084;DHT22;58741;52.672;13.548;2022-07-12T01:23:28;12.00;79.60
71084;DHT22;58741;52.672;13.548;2022-07-12T01:25:53;12.00;79.80
71084;DHT22;58741;52.672;13.548;2022-07-12T01:28:19;11.90;80.20
71084;DHT22;58741;52.672;13.548;2022-07-12T01:30:46;11.90;80.50
71084;DHT22;58741;52.672;13.548;2022-07-12T01:33:12;11.90;80.50
71084;DHT22;58741;52.672;13.548;2022-07-12T01:35:38;11.80;80.50
71084;DHT22;58741;52.672;13.548;2022-07-12T01:38:04;11.80;80.50
71084;DHT22;58741;52.672;13.548;2022-07-12T01:40:30;11.80;80.90
71084;DHT22;58741;52.672;13.548;2022-07-12T01:42:56;11.70;81.00
71084;DHT22;58741;52.672;13.548;2022-07-12T01:45:22;11.70;80.80
71084;DHT22;58741;52.672;13.548;2022-07-12T01:47:47;11.70;80.50
71084;DHT22;58741;52.672;13.548;2022-07-12T01:50:14;11.60;80.30
71084;DHT22;58741;52.672;13.548;2022-07-12T01:52:41;11.60;80.60
71084;DHT22;58741;52.672;13.548;2022-07-12T01:55:08;11.60;81.00
71084;DHT22;58741;52.672;13.548;2022-07-12T01:57:34;11.60;81.50
71084;DHT22;58741;52.672;13.548;2022-07-12T02:00:06;11.50;81.30
71084;DHT22;58741;52.672;13.548;2022-07-12T02:02:32;11.50;81.30
71084;DHT22;58741;52.672;13.548;2022-07-12T02:04:59;11.50;81.10
71084;DHT22;58741;52.672;13.548;2022-07-12T02:07:25;11.40;80.70
71084;DHT22;58741;52.672;13.548;2022-07-12T02:09:51;11.40;81.00
71084;DHT22;58741;52.672;13.548;2022-07-12T02:12:16;11.30;81.00
71084;DHT22;58741;52.672;13.548;2022-07-12T02:14:42;11.30;81.00
71084;DHT22;58741;52.672;13.548;2022-07-12T02:17:07;11.30;81.60
71084;DHT22;58741;52.672;13.548;2022-07-12T02:19:33;11.20;81.80
71084;DHT22;58741;52.672;13.548;2022-07-12T02:21:58;11.20;81.70
71084;DHT22;58741;52.672;13.548;2022-07-12T02:24:24;11.20;81.80
71084;DHT22;58741;52.672;13.548;2022-07-12T02:26:50;11.20;82.00
71084;DHT22;58741;52.672;13.548;2022-07-12T02:29:15;11.20;81.90
71084;DHT22;58741;52.672;13.548;2022-07-12T02:31:41;11.10;82.00
71084;DHT22;58741;52.672;13.548;2022-07-12T02:34:07;11.10;81.80
71084;DHT22;58741;52.672;13.548;2022-07-12T02:36:32;11.10;81.50
71084;DHT22;58741;52.672;13.548;2022-07-12T02:39:02;11.00;81.40
71084;DHT22;58741;52.672;13.548;2022-07-12T02:41:32;11.00;81.80
71084;DHT22;58741;52.672;13.548;2022-07-12T02:43:59;11.00;82.20
71084;DHT22;58741;52.672;13.548;2022-07-12T02:46:25;10.90;82.30
71084;DHT22;58741;52.672;13.548;2022-07-12T02:48:51;10.90;82.30
71084;DHT22;58741;52.672;13.548;2022-07-12T02:51:17;10.90;82.40
71084;DHT22;58741;52.672;13.548;2022-07-12T02:53:43;10.90;82.60
71084;DHT22;58741;52.672;13.548;2022-07-12T02:56:09;10.80;82.70
71084;DHT22;58741;52.672;13.548;2022-07-12T02:58:35;10.80;82.50
71084;DHT22;58741;52.672;13.548;2022-07-12T03:01:01;10.80;82.70
71084;DHT22;58741;52.672;13.548;2022-07-12T03:03:27;10.80;82.70
71084;DHT22;58741;52.672;13.548;2022-07-12T03:05:52;10.80;82.70
71084;DHT22;58741;52.672;13.548;2022-07-12T03:08:18;10.70;82.80
71084;DHT22;58741;52.672;13.548;2022-07-12T03:10:43;10.70;82.70
71084;DHT22;58741;52.672;13.548;2022-07-12T03:13:09;10.70;83.40
71084;DHT22;58741;52.672;13.548;2022-07-12T03:15:35;10.70;83.30
71084;DHT22;58741;52.672;13.548;2022-07-12T03:18:01;10.60;82.60
71084;DHT22;58741;52.672;13.548;2022-07-12T03:20:28;10.60;82.80
71084;DHT22;58741;52.672;13.548;2022-07-12T03:22:53;10.60;83.90
71084;DHT22;58741;52.672;13.548;2022-07-12T03:25:20;10.60;83.30
71084;DHT22;58741;52.672;13.548;2022-07-12T03:27:46;10.60;83.10
71084;DHT22;58741;52.672;13.548;2022-07-12T03:30:12;10.60;84.00
71084;DHT22;58741;52.672;13.548;2022-07-12T03:32:38;10.60;84.00
71084;DHT22;58741;52.672;13.548;2022-07-12T03:35:04;10.60;84.10
71084;DHT22;58741;52.672;13.548;2022-07-12T03:37:48;10.60;84.20
71084;DHT22;58741;52.672;13.548;2022-07-12T03:40:15;10.60;84.30
71084;DHT22;58741;52.672;13.548;2022-07-12T03:42:42;10.60;84.20
71084;DHT22;58741;52.672;13.548;2022-07-12T03:45:08;10.60;84.00
71084;DHT22;58741;52.672;13.548;2022-07-12T03:47:34;10.60;84.80
71084;DHT22;58741;52.672;13.548;2022-07-12T03:50:01;10.60;84.80
71084;DHT22;58741;52.672;13.548;2022-07-12T03:52:27;10.60;84.70
71084;DHT22;58741;52.672;13.548;2022-07-12T03:54:53;10.60;84.00
71084;DHT22;58741;52.672;13.548;2022-07-12T03:57:18;10.60;83.60
71084;DHT22;58741;52.672;13.548;2022-07-12T03:59:45;10.70;84.90
71084;DHT22;58741;52.672;13.548;2022-07-12T04:02:11;10.70;84.50
71084;DHT22;58741;52.672;13.548;2022-07-12T04:04:37;10.70;84.90
71084;DHT22;58741;52.672;13.548;2022-07-12T04:07:04;10.80;85.20
71084;DHT22;58741;52.672;13.548;2022-07-12T04:09:30;10.80;85.60
71084;DHT22;58741;52.672;13.548;2022-07-12T04:11:56;10.90;85.40
71084;DHT22;58741;52.672;13.548;2022-07-12T04:14:21;10.90;85.30
71084;DHT22;58741;52.672;13.548;2022-07-12T04:16:47;10.90;84.70
71084;DHT22;58741;52.672;13.548;2022-07-12T04:19:13;11.00;85.40
71084;DHT22;58741;52.672;13.548;2022-07-12T04:21:38;11.00;85.70
71084;DHT22;58741;52.672;13.548;2022-07-12T04:24:05;11.10;86.20
71084;DHT22;58741;52.672;13.548;2022-07-12T04:26:31;11.10;86.90
71084;DHT22;58741;52.672;13.548;2022-07-12T04:28:56;11.20;85.50
71084;DHT22;58741;52.672;13.548;2022-07-12T04:31:22;11.20;86.20
71084;DHT22;58741;52.672;13.548;2022-07-12T04:33:48;11.20;86.90
71084;DHT22;58741;52.672;13.548;2022-07-12T04:36:14;11.30;86.70
71084;DHT22;58741;52.672;13.548;2022-07-12T04:38:39;11.40;86.50
71084;DHT22;58741;52.672;13.548;2022-07-12T04:41:04;11.40;86.70
71084;DHT22;58741;52.672;13.548;2022-07-12T04:43:30;11.50;86.90
71084;DHT22;58741;52.672;13.548;2022-07-12T04:45:55;11.60;87.10
71084;DHT22;58741;52.672;13.548;2022-07-12T04:48:21;11.70;87.50
71084;DHT22;58741;52.672;13.548;2022-07-12T04:50:46;11.70;87.00
71084;DHT22;58741;52.672;13.548;2022-07-12T04:53:12;11.80;87.60
71084;DHT22;58741;52.672;13.548;2022-07-12T04:55:37;11.90;86.70
71084;DHT22;58741;52.672;13.548;2022-07-12T04:58:03;12.00;86.90
71084;DHT22;58741;52.672;13.548;2022-07-12T05:00:31;12.10;87.20
71084;DHT22;58741;52.672;13.548;2022-07-12T05:02:57;12.20;86.80
71084;DHT22;58741;52.672;13.548;2022-07-12T05:05:22;12.30;86.40
71084;DHT22;58741;52.672;13.548;2022-07-12T05:07:48;12.40;86.50
71084;DHT22;58741;52.672;13.548;2022-07-12T05:10:13;12.60;86.50
71084;DHT22;58741;52.672;13.548;2022-07-12T05:12:39;12.70;86.10
71084;DHT22;58741;52.672;13.548;2022-07-12T05:15:05;12.90;85.70
71084;DHT22;58741;52.672;13.548;2022-07-12T05:17:32;13.00;85.40
71084;DHT22;58741;52.672;13.548;2022-07-12T05:19:57;13.20;85.10
71084;DHT22;58741;52.672;13.548;2022-07-12T05:22:23;13.30;84.90
71084;DHT22;58741;52.672;13.548;2022-07-12T05:24:48;13.50;84.00
71084;DHT22;58741;52.672;13.548;2022-07-12T05:27:14;13.60;83.30
71084;DHT22;58741;52.672;13.548;2022-07-12T05:29:39;13.80;83.10
71084;DHT22;58741;52.672;13.548;2022-07-12T05:32:05;13.90;82.60
71084;DHT22;58741;52.672;13.548;2022-07-12T05:34:31;14.10;81.30
71084;DHT22;58741;52.672;13.548;2022-07-12T05:36:56;14.30;81.60
71084;DHT22;58741;52.672;13.548;2022-07-12T05:39:22;14.50;80.50
71084;DHT22;58741;52.672;13.548;2022-07-12T05:41:47;14.80;80.40
71084;DHT22;58741;52.672;13.548;2022-07-12T05:44:13;15.00;79.10
71084;DHT22;58741;52.672;13.548;2022-07-12T05:46:39;15.20;79.20
71084;DHT22;58741;52.672;13.548;2022-07-12T05:49:06;15.40;79.00
71084;DHT22;58741;52.672;13.548;2022-07-12T05:51:32;15.60;78.80
71084;DHT22;58741;52.672;13.548;2022-07-12T05:54:16;15.90;78.30
71084;DHT22;58741;52.672;13.548;2022-07-12T05:56:41;16.10;77.50
71084;DHT22;58741;52.672;13.548;2022-07-12T05:59:07;16.30;77.20
71084;DHT22;58741;52.672;13.548;2022-07-12T06:01:32;16.60;76.00
71084;DHT22;58741;52.672;13.548;2022-07-12T06:03:58;16.80;75.50
71084;DHT22;58741;52.672;13.548;2022-07-12T06:06:23;17.00;74.70
71084;DHT22;58741;52.672;13.548;2022-07-12T06:08:49;17.20;74.10
71084;DHT22;58741;52.672;13.548;2022-07-12T06:11:14;17.40;72.80
71084;DHT22;58741;52.672;13.548;2022-07-12T06:13:40;17.60;73.60
71084;DHT22;58741;52.672;13.548;2022-07-12T06:16:05;17.80;71.70
71084;DHT22;58741;52.672;13.548;2022-07-12T06:18:34;18.10;71.70
71084;DHT22;58741;52.672;13.548;2022-07-12T06:20:59;18.30;69.40
71084;DHT22;58741;52.672;13.548;2022-07-12T06:23:25;18.40;67.20
71084;DHT22;58741;52.672;13.548;2022-07-12T06:25:50;18.60;68.50
71084;DHT22;58741;52.672;13.548;2022-07-12T06:28:16;18.80;68.00
71084;DHT22;58741;52.672;13.548;2022-07-12T06:30:41;19.00;66.50
71084;DHT22;58741;52.672;13.548;2022-07-12T06:33:07;19.20;68.10
71084;DHT22;58741;52.672;13.548;2022-07-12T06:35:32;19.40;66.00
71084;DHT22;58741;52.672;13.548;2022-07-12T06:37:59;19.60;65.50
71084;DHT22;58741;52.672;13.548;2022-07-12T06:40:25;19.80;63.10
71084;DHT22;58741;52.672;13.548;2022-07-12T06:42:50;20.00;62.90
71084;DHT22;58741;52.672;13.548;2022-07-12T06:45:16;20.10;64.30
71084;DHT22;58741;52.672;13.548;2022-07-12T06:47:41;20.30;61.50
71084;DHT22;58741;52.672;13.548;2022-07-12T06:50:07;20.50;61.70
71084;DHT22;58741;52.672;13.548;2022-07-12T06:52:33;20.60;59.50
71084;DHT22;58741;52.672;13.548;2022-07-12T06:54:58;20.70;60.70
71084;DHT22;58741;52.672;13.548;2022-07-12T06:57:24;20.80;60.80
71084;DHT22;58741;52.672;13.548;2022-07-12T06:59:52;21.00;61.20
71084;DHT22;58741;52.672;13.548;2022-07-12T07:02:17;21.20;60.50
71084;DHT22;58741;52.672;13.548;2022-07-12T07:04:43;21.30;58.10
71084;DHT22;58741;52.672;13.548;2022-07-12T07:07:08;21.50;56.70
71084;DHT22;58741;52.672;13.548;2022-07-12T07:09:34;21.60;57.60
71084;DHT22;58741;52.672;13.548;2022-07-12T07:12:00;21.80;58.30
71084;DHT22;58741;52.672;13.548;2022-07-12T07:14:26;21.90;58.10
71084;DHT22;58741;52.672;13.548;2022-07-12T07:16:53;22.10;55.00
71084;DHT22;58741;52.672;13.548;2022-07-12T07:19:18;22.20;53.50
71084;DHT22;58741;52.672;13.548;2022-07-12T07:21:44;22.40;55.20
71084;DHT22;58741;52.672;13.548;2022-07-12T07:24:09;22.50;55.30
71084;DHT22;58741;52.672;13.548;2022-07-12T07:26:35;22.60;54.40
71084;DHT22;58741;52.672;13.548;2022-07-12T07:29:01;22.80;53.60
71084;DHT22;58741;52.672;13.548;2022-07-12T07:31:45;22.90;52.50
71084;DHT22;58741;52.672;13.548;2022-07-12T07:34:10;23.00;52.70
71084;DHT22;58741;52.672;13.548;2022-07-12T07:36:36;23.10;52.10
71084;DHT22;58741;52.672;13.548;2022-07-12T07:39:02;23.20;53.50
71084;DHT22;58741;52.672;13.548;2022-07-12T07:41:27;23.30;52.90
71084;DHT22;58741;52.672;13.548;2022-07-12T07:43:53;23.40;53.90
71084;DHT22;58741;52.672;13.548;2022-07-12T07:46:18;23.60;51.90
71084;DHT22;58741;52.672;13.548;2022-07-12T07:48:44;23.70;50.40
71084;DHT22;58741;52.672;13.548;2022-07-12T07:51:09;23.80;50.20
71084;DHT22;58741;52.672;13.548;2022-07-12T07:53:35;23.90;51.80
71084;DHT22;58741;52.672;13.548;2022-07-12T07:56:01;24.00;51.00
71084;DHT22;58741;52.672;13.548;2022-07-12T07:58:26;24.10;51.30
71084;DHT22;58741;52.672;13.548;2022-07-12T08:03:01;24.30;49.50
71084;DHT22;58741;52.672;13.548;2022-07-12T08:05:27;24.40;48.20
71084;DHT22;58741;52.672;13.548;2022-07-12T08:07:53;24.50;49.20
71084;DHT22;58741;52.672;13.548;2022-07-12T08:10:18;24.60;50.70
71084;DHT22;58741;52.672;13.548;2022-07-12T08:12:44;24.70;48.90
71084;DHT22;58741;52.672;13.548;2022-07-12T08:15:10;24.80;48.80
71084;DHT22;58741;52.672;13.548;2022-07-12T08:17:35;24.90;45.70
71084;DHT22;58741;52.672;13.548;2022-07-12T08:20:03;24.90;47.50
71084;DHT22;58741;52.672;13.548;2022-07-12T08:22:29;24.90;48.60
71084;DHT22;58741;52.672;13.548;2022-07-12T08:24:54;25.00;47.70
71084;DHT22;58741;52.672;13.548;2022-07-12T08:27:20;25.10;47.80
71084;DHT22;58741;52.672;13.548;2022-07-12T08:29:45;25.20;47.80
71084;DHT22;58741;52.672;13.548;2022-07-12T08:32:11;25.30;45.50
71084;DHT22;58741;52.672;13.548;2022-07-12T08:34:36;25.40;46.80
71084;DHT22;58741;52.672;13.548;2022-07-12T08:37:02;25.50;46.50
71084;DHT22;58741;52.672;13.548;2022-07-12T08:39:28;25.60;47.90
71084;DHT22;58741;52.672;13.548;2022-07-12T08:41:54;25.60;47.00
71084;DHT22;58741;52.672;13.548;2022-07-12T08:44:19;25.80;45.80
71084;DHT22;58741;52.672;13.548;2022-07-12T08:46:45;25.80;46.50
71084;DHT22;58741;52.672;13.548;2022-07-12T08:49:12;25.90;46.30
71084;DHT22;58741;52.672;13.548;2022-07-12T08:51:38;25.90;45.90
71084;DHT22;58741;52.672;13.548;2022-07-12T08:54:11;26.00;44.60
71084;DHT22;58741;52.672;13.548;2022-07-12T08:56:39;26.10;46.60
71084;DHT22;58741;52.672;13.548;2022-07-12T08:59:15;26.20;46.70
71084;DHT22;58741;52.672;13.548;2022-07-12T09:01:42;26.30;46.80
71084;DHT22;58741;52.672;13.548;2022-07-12T09:04:12;26.40;46.80
71084;DHT22;58741;52.672;13.548;2022-07-12T09:06:38;26.40;46.00
71084;DHT22;58741;52.672;13.548;2022-07-12T09:09:03;26.40;47.30
71084;DHT22;58741;52.672;13.548;2022-07-12T09:11:29;26.40;44.20
71084;DHT22;58741;52.672;13.548;2022-07-12T09:13:55;26.50;45.30
71084;DHT22;58741;52.672;13.548;2022-07-12T09:16:23;26.50;44.90
71084;DHT22;58741;52.672;13.548;2022-07-12T09:18:50;26.50;44.00
71084;DHT22;58741;52.672;13.548;2022-07-12T09:23:53;26.60;44.60
71084;DHT22;58741;52.672;13.548;2022-07-12T09:26:18;26.70;44.80
71084;DHT22;58741;52.672;13.548;2022-07-12T09:28:44;26.70;44.40
71084;DHT22;58741;52.672;13.548;2022-07-12T09:31:10;26.70;43.20
71084;DHT22;58741;52.672;13.548;2022-07-12T09:33:37;26.80;45.80
71084;DHT22;58741;52.672;13.548;2022-07-12T09:36:24;26.90;45.30
71084;DHT22;58741;52.672;13.548;2022-07-12T09:38:52;27.00;44.40
71084;DHT22;58741;52.672;13.548;2022-07-12T09:41:26;27.00;42.30
71084;DHT22;58741;52.672;13.548;2022-07-12T09:43:52;26.90;42.60
71084;DHT22;58741;52.672;13.548;2022-07-12T09:46:19;26.80;42.90
71084;DHT22;58741;52.672;13.548;2022-07-12T09:48:45;26.90;40.70
71084;DHT22;58741;52.672;13.548;2022-07-12T09:51:16;26.90;41.10
71084;DHT22;58741;52.672;13.548;2022-07-12T09:53:44;26.70;43.40
71084;DHT22;58741;52.672;13.548;2022-07-12T09:56:13;26.70;43.40
71084;DHT22;58741;52.672;13.548;2022-07-12T09:58:56;26.80;43.80
71084;DHT22;58741;52.672;13.548;2022-07-12T10:01:23;26.90;42.70
71084;DHT22;58741;52.672;13.548;2022-07-12T10:03:51;27.00;42.10
71084;DHT22;58741;52.672;13.548;2022-07-12T10:06:24;27.00;41.60
71084;DHT22;58741;52.672;13.548;2022-07-12T10:08:51;27.10;43.40
71084;DHT22;58741;52.672;13.548;2022-07-12T10:11:16;27.10;42.00
71084;DHT22;58741;52.672;13.548;2022-07-12T10:13:43;27.10;41.50
71084;DHT22;58741;52.672;13.548;2022-07-12T10:16:10;27.00;41.90
71084;DHT22;58741;52.672;13.548;2022-07-12T10:18:37;27.00;42.60
71084;DHT22;58741;52.672;13.548;2022-07-12T10:21:17;27.00;42.90
71084;DHT22;58741;52.672;13.548;2022-07-12T10:23:44;27.10;44.00
71084;DHT22;58741;52.672;13.548;2022-07-12T10:31:34;27.40;42.00
71084;DHT22;58741;52.672;13.548;2022-07-12T10:34:12;27.50;42.30
71084;DHT22;58741;52.672;13.548;2022-07-12T10:39:23;27.40;41.20
71084;DHT22;58741;52.672;13.548;2022-07-12T10:44:36;27.40;41.70
71084;DHT22;58741;52.672;13.548;2022-07-12T10:47:03;27.40;40.90
71084;DHT22;58741;52.672;13.548;2022-07-12T10:49:30;27.30;40.20
71084;DHT22;58741;52.672;13.548;2022-07-12T10:57:42;27.30;42.90
71084;DHT22;58741;52.672;13.548;2022-07-12T11:00:09;27.50;42.30
71084;DHT22;58741;52.672;13.548;2022-07-12T11:02:36;27.60;41.70
71084;DHT22;58741;52.672;13.548;2022-07-12T11:05:01;27.70;40.50
71084;DHT22;58741;52.672;13.548;2022-07-12T11:07:28;27.70;40.00
71084;DHT22;58741;52.672;13.548;2022-07-12T11:09:54;27.70;41.70
71084;DHT22;58741;52.672;13.548;2022-07-12T11:12:20;27.80;41.90
71084;DHT22;58741;52.672;13.548;2022-07-12T11:14:46;27.90;40.80
71084;DHT22;58741;52.672;13.548;2022-07-12T11:17:11;28.00;40.30
71084;DHT22;58741;52.672;13.548;2022-07-12T11:19:37;28.20;40.30
71084;DHT22;58741;52.672;13.548;2022-07-12T11:22:03;28.30;40.30
71084;DHT22;58741;52.672;13.548;2022-07-12T11:24:33;28.50;40.60
71084;DHT22;58741;52.672;13.548;2022-07-12T11:27:01;28.60;39.20
71084;DHT22;58741;52.672;13.548;2022-07-12T11:29:27;28.60;37.80
71084;DHT22;58741;52.672;13.548;2022-07-12T11:32:03;28.50;39.00
71084;DHT22;58741;52.672;13.548;2022-07-12T11:34:31;28.40;38.20
71084;DHT22;58741;52.672;13.548;2022-07-12T11:37:01;28.40;40.30
71084;DHT22;58741;52.672;13.548;2022-07-12T11:39:33;28.50;38.70
71084;DHT22;58741;52.672;13.548;2022-07-12T11:41:59;28.50;39.90
71084;DHT22;58741;52.672;13.548;2022-07-12T11:45:01;28.50;39.00
71084;DHT22;58741;52.672;13.548;2022-07-12T11:47:26;28.30;37.40
71084;DHT22;58741;52.672;13.548;2022-07-12T11:49:54;28.20;38.00
71084;DHT22;58741;52.672;13.548;2022-07-12T11:52:22;28.00;37.70
71084;DHT22;58741;52.672;13.548;2022-07-12T11:54:49;27.90;36.90
71084;DHT22;58741;52.672;13.548;2022-07-12T11:57:19;27.90;38.00
71084;DHT22;58741;52.672;13.548;2022-07-12T11:59:45;27.80;38.40
71084;DHT22;58741;52.672;13.548;2022-07-12T12:02:13;27.80;38.00
71084;DHT22;58741;52.672;13.548;2022-07-12T12:04:49;27.70;38.20
71084;DHT22;58741;52.672;13.548;2022-07-12T12:07:16;27.60;39.30
71084;DHT22;58741;52.672;13.548;2022-07-12T12:09:59;27.50;39.40
71084;DHT22;58741;52.672;13.548;2022-07-12T12:12:25;27.40;40.20
71084;DHT22;58741;52.672;13.548;2022-07-12T12:14:50;27.30;40.00
71084;DHT22;58741;52.672;13.548;2022-07-12T12:17:16;27.40;41.80
71084;DHT22;58741;52.672;13.548;2022-07-12T12:19:42;27.50;40.90
71084;DHT22;58741;52.672;13.548;2022-07-12T12:22:33;27.50;40.30
71084;DHT22;58741;52.672;13.548;2022-07-12T12:25:03;27.50;41.20
71084;DHT22;58741;52.672;13.548;2022-07-12T12:27:29;27.50;39.40
71084;DHT22;58741;52.672;13.548;2022-07-12T12:30:05;27.40;40.00
71084;DHT22;58741;52.672;13.548;2022-07-12T12:32:52;27.30;40.40
71084;DHT22;58741;52.672;13.548;2022-07-12T12:35:20;27.30;41.70
71084;DHT22;58741;52.672;13.548;2022-07-12T12:38:03;27.30;40.30
71084;DHT22;58741;52.672;13.548;2022-07-12T12:40:33;27.20;41.10
71084;DHT22;58741;52.672;13.548;2022-07-12T12:43:07;27.30;42.60
71084;DHT22;58741;52.672;13.548;2022-07-12T12:45:34;27.30;39.80
71084;DHT22;58741;52.672;13.548;2022-07-12T12:48:04;27.20;42.10
71084;DHT22;58741;52.672;13.548;2022-07-12T12:50:43;27.20;41.80
71084;DHT22;58741;52.672;13.548;2022-07-12T12:55:37;27.60;41.20
71084;DHT22;58741;52.672;13.548;2022-07-12T12:58:04;27.70;41.00
71084;DHT22;58741;52.672;13.548;2022-07-12T13:00:31;27.90;40.40
71084;DHT22;58741;52.672;13.548;2022-07-12T13:02:57;27.90;39.10
71084;DHT22;58741;52.672;13.548;2022-07-12T13:05:27;27.80;40.90
71084;DHT22;58741;52.672;13.548;2022-07-12T13:07:53;27.80;42.00
71084;DHT22;58741;52.672;13.548;2022-07-12T13:10:19;27.90;39.30
71084;DHT22;58741;52.672;13.548;2022-07-12T13:12:44;28.10;42.50
71084;DHT22;58741;52.672;13.548;2022-07-12T13:15:10;28.20;39.40
71084;DHT22;58741;52.672;13.548;2022-07-12T13:17:36;28.30;39.90
71084;DHT22;58741;52.672;13.548;2022-07-12T13:20:03;28.30;39.40
71084;DHT22;58741;52.672;13.548;2022-07-12T13:22:28;28.30;41.10
71084;DHT22;58741;52.672;13.548;2022-07-12T13:24:54;28.30;40.20
71084;DHT22;58741;52.672;13.548;2022-07-12T13:27:20;28.50;40.20
71084;DHT22;58741;52.672;13.548;2022-07-12T13:29:46;28.60;40.70
71084;DHT22;58741;52.672;13.548;2022-07-12T13:32:12;28.70;42.90
71084;DHT22;58741;52.672;13.548;2022-07-12T13:34:37;28.80;40.20
71084;DHT22;58741;52.672;13.548;2022-07-12T13:37:04;28.90;38.50
71084;DHT22;58741;52.672;13.548;2022-07-12T13:39:29;28.80;37.50
71084;DHT22;58741;52.672;13.548;2022-07-12T13:42:13;28.70;37.40
71084;DHT22;58741;52.672;13.548;2022-07-12T13:44:39;28.50;38.40
71084;DHT22;58741;52.672;13.548;2022-07-12T13:47:05;28.40;39.40
71084;DHT22;58741;52.672;13.548;2022-07-12T13:49:30;28.30;38.00
71084;DHT22;58741;52.672;13.548;2022-07-12T13:51:56;28.20;38.40
71084;DHT22;58741;52.672;13.548;2022-07-12T13:54:21;28.10;38.10
71084;DHT22;58741;52.672;13.548;2022-07-12T13:56:47;28.00;38.10
71084;DHT22;58741;52.672;13.548;2022-07-12T13:59:12;28.00;40.10
71084;DHT22;58741;52.672;13.548;2022-07-12T14:01:38;28.10;39.70
71084;DHT22;58741;52.672;13.548;2022-07-12T14:04:03;28.20;39.80
71084;DHT22;58741;52.672;13.548;2022-07-12T14:06:29;28.30;40.20
71084;DHT22;58741;52.672;13.548;2022-07-12T14:08:55;28.40;40.80
71084;DHT22;58741;52.672;13.548;2022-07-12T14:11:21;28.50;39.20
71084;DHT22;58741;52.672;13.548;2022-07-12T14:13:47;28.60;39.60
71084;DHT22;58741;52.672;13.548;2022-07-12T14:16:12;28.70;38.20
71084;DHT22;58741;52.672;13.548;2022-07-12T14:18:39;28.60;37.70
71084;DHT22;58741;52.672;13.548;2022-07-12T14:21:06;28.50;36.90
71084;DHT22;58741;52.672;13.548;2022-07-12T14:23:32;28.40;37.40
71084;DHT22;58741;52.672;13.548;2022-07-12T14:25:57;28.20;38.60
71084;DHT22;58741;52.672;13.548;2022-07-12T14:28:23;28.10;38.80
71084;DHT22;58741;52.672;13.548;2022-07-12T14:30:48;28.10;39.60
71084;DHT22;58741;52.672;13.548;2022-07-12T14:33:14;28.20;39.30
71084;DHT22;58741;52.672;13.548;2022-07-12T14:35:39;28.30;40.00
71084;DHT22;58741;52.672;13.548;2022-07-12T14:38:05;28.40;39.90
71084;DHT22;58741;52.672;13.548;2022-07-12T14:40:30;28.50;37.90
71084;DHT22;58741;52.672;13.548;2022-07-12T14:42:56;28.70;38.20
71084;DHT22;58741;52.672;13.548;2022-07-12T14:45:23;28.70;38.30
71084;DHT22;58741;52.672;13.548;2022-07-12T14:47:49;28.60;38.90
71084;DHT22;58741;52.672;13.548;2022-07-12T14:50:14;28.60;39.10
71084;DHT22;58741;52.672;13.548;2022-07-12T14:52:40;28.50;39.30
71084;DHT22;58741;52.672;13.548;2022-07-12T14:55:06;28.40;39.90
71084;DHT22;58741;52.672;13.548;2022-07-12T14:57:32;28.30;38.90
71084;DHT22;58741;52.672;13.548;2022-07-12T14:59:57;28.20;39.20
71084;DHT22;58741;52.672;13.548;2022-07-12T15:02:23;28.20;40.30
71084;DHT22;58741;52.672;13.548;2022-07-12T15:04:48;28.20;39.60
71084;DHT22;58741;52.672;13.548;2022-07-12T15:07:15;28.30;40.10
71084;DHT22;58741;52.672;13.548;2022-07-12T15:09:40;28.40;40.30
71084;DHT22;58741;52.672;13.548;2022-07-12T15:12:06;28.50;39.80
71084;DHT22;58741;52.672;13.548;2022-07-12T15:14:31;28.40;39.80
71084;DHT22;58741;52.672;13.548;2022-07-12T15:16:57;28.40;39.60
71084;DHT22;58741;52.672;13.548;2022-07-12T15:19:22;28.40;40.50
71084;DHT22;58741;52.672;13.548;2022-07-12T15:21:48;28.50;39.90
71084;DHT22;58741;52.672;13.548;2022-07-12T15:24:13;28.60;41.80
71084;DHT22;58741;52.672;13.548;2022-07-12T15:26:39;28.70;40.90
71084;DHT22;58741;52.672;13.548;2022-07-12T15:29:05;28.80;40.30
71084;DHT22;58741;52.672;13.548;2022-07-12T15:31:31;28.80;39.00
71084;DHT22;58741;52.672;13.548;2022-07-12T15:33:58;28.70;38.00
71084;DHT22;58741;52.672;13.548;2022-07-12T15:36:23;28.60;38.80